sensor_id;sensor_type;location;lat;lon;timestamp;P1;durP1;ratioP1;P2;durP2;ratioP2
7128;SDS011;3606;52.930;8.644;2022-09-09T00:02:20;23.53;;;16.33;;
7128;SDS011;3606;52.930;8.644;2022-09-09T00:05:04;20.77;;;16.20;;
7128;SDS011;3606;52.930;8.644;2022-09-09T00:07:53;23.87;;;15.93;;
7128;SDS011;3606;52.930;8.644;2022-09-09T00:12:53;25.63;;;18.03;;
7128;SDS011;3606;52.930;8.644;2022-09-09T00:15:38;23.43;;;16.63;;
7128;SDS011;3606;52.930;8.644;2022-09-09T00:18:44;21.70;;;15.93;;
7128;SDS011;3606;52.930;8.644;2022-09-09T00:21:34;22.70;;;15.90;;
7128;SDS011;3606;52.930;8.644;2022-09-09T00:24:08;23.50;;;16.70;;
7128;SDS011;3606;52.930;8.644;2022-09-09T00:26:42;26.27;;;17.17;;
7128;SDS011;3606;52.930;8.644;2022-09-09T00:31:55;25.77;;;17.07;;
7128;SDS011;3606;52.930;8.644;2022-09-09T00:34:24;24.77;;;17.70;;
7128;SDS011;3606;52.930;8.644;2022-09-09T00:36:53;28.93;;;18.47;;
7128;SDS011;3606;52.930;8.644;2022-09-09T00:39:37;25.50;;;16.87;;
7128;SDS011;3606;52.930;8.644;2022-09-09T00:42:18;23.63;;;16.10;;
7128;SDS011;3606;52.930;8.644;2022-09-09T00:45:02;22.97;;;15.10;;
7128;SDS011;3606;52.930;8.644;2022-09-09T00:47:52;23.23;;;16.17;;
7128;SDS011;3606;52.930;8.644;2022-09-09T00:58:34;15.60;;;12.43;;
7128;SDS011;3606;52.930;8.644;2022-09-09T01:01:10;21.10;;;13.30;;
7128;SDS011;3606;52.930;8.644;2022-09-09T01:06:16;20.03;;;14.23;;
7128;SDS011;3606;52.930;8.644;2022-09-09T01:11:36;16.37;;;13.07;;
7128;SDS011;3606;52.930;8.644;2022-09-09T01:14:22;18.50;;;11.23;;
7128;SDS011;3606;52.930;8.644;2022-09-09T01:16:58;14.07;;;11.33;;
7128;SDS011;3606;52.930;8.644;2022-09-09T01:25:10;13.23;;;10.60;;
7128;SDS011;3606;52.930;8.644;2022-09-09T01:27:59;16.97;;;11.20;;
7128;SDS011;3606;52.930;8.644;2022-09-09T01:30:28;17.23;;;11.03;;
7128;SDS011;3606;52.930;8.644;2022-09-09T01:32:55;15.23;;;11.00;;
7128;SDS011;3606;52.930;8.644;2022-09-09T01:37:59;18.27;;;11.67;;
7128;SDS011;3606;52.930;8.644;2022-09-09T01:40:25;18.17;;;11.90;;
7128;SDS011;3606;52.930;8.644;2022-09-09T01:42:51;15.80;;;11.03;;
7128;SDS011;3606;52.930;8.644;2022-09-09T01:45:17;13.20;;;10.93;;
7128;SDS011;3606;52.930;8.644;2022-09-09T01:47:43;13.90;;;10.27;;
7128;SDS011;3606;52.930;8.644;2022-09-09T01:50:10;11.93;;;9.70;;
7128;SDS011;3606;52.930;8.644;2022-09-09T01:52:39;16.23;;;10.90;;
7128;SDS011;3606;52.930;8.644;2022-09-09T01:55:06;16.47;;;12.20;;
7128;SDS011;3606;52.930;8.644;2022-09-09T01:57:33;16.57;;;10.77;;
7128;SDS011;3606;52.930;8.644;2022-09-09T02:00:22;17.60;;;12.53;;
7128;SDS011;3606;52.930;8.644;2022-09-09T02:03:05;16.87;;;11.23;;
7128;SDS011;3606;52.930;8.644;2022-09-09T02:05:40;17.37;;;11.17;;
7128;SDS011;3606;52.930;8.644;2022-09-09T02:08:24;12.47;;;10.17;;
7128;SDS011;3606;52.930;8.644;2022-09-09T02:11:13;12.37;;;10.47;;
7128;SDS011;3606;52.930;8.644;2022-09-09T02:13:44;14.13;;;10.40;;
7128;SDS011;3606;52.930;8.644;2022-09-09T02:18:57;15.37;;;10.10;;
7128;SDS011;3606;52.930;8.644;2022-09-09T02:21:28;14.63;;;10.07;;
7128;SDS011;3606;52.930;8.644;2022-09-09T02:23:56;16.57;;;9.73;;
7128;SDS011;3606;52.930;8.644;2022-09-09T02:26:25;15.03;;;10.77;;
7128;SDS011;3606;52.930;8.644;2022-09-09T02:28:52;17.27;;;10.37;;
7128;SDS011;3606;52.930;8.644;2022-09-09T02:31:23;12.67;;;10.33;;
7128;SDS011;3606;52.930;8.644;2022-09-09T02:33:59;17.87;;;11.53;;
7128;SDS011;3606;52.930;8.644;2022-09-09T02:36:32;14.83;;;11.63;;
7128;SDS011;3606;52.930;8.644;2022-09-09T02:39:00;15.43;;;11.03;;
7128;SDS011;3606;52.930;8.644;2022-09-09T02:41:32;14.93;;;10.87;;
7128;SDS011;3606;52.930;8.644;2022-09-09T02:43:59;15.70;;;11.30;;
7128;SDS011;3606;52.930;8.644;2022-09-09T02:49:10;14.83;;;10.37;;
7128;SDS011;3606;52.930;8.644;2022-09-09T02:52:12;16.37;;;10.80;;
7128;SDS011;3606;52.930;8.644;2022-09-09T02:54:43;16.67;;;10.77;;
7128;SDS011;3606;52.930;8.644;2022-09-09T02:59:41;18.80;;;11.17;;
7128;SDS011;3606;52.930;8.644;2022-09-09T03:02:09;15.97;;;12.37;;
7128;SDS011;3606;52.930;8.644;2022-09-09T03:04:36;17.10;;;11.37;;
7128;SDS011;3606;52.930;8.644;2022-09-09T03:07:02;16.07;;;10.97;;
7128;SDS011;3606;52.930;8.644;2022-09-09T03:09:28;15.77;;;11.47;;
7128;SDS011;3606;52.930;8.644;2022-09-09T03:11:55;17.03;;;11.27;;
7128;SDS011;3606;52.930;8.644;2022-09-09T03:14:21;13.90;;;10.40;;
7128;SDS011;3606;52.930;8.644;2022-09-09T03:16:49;13.30;;;9.60;;
7128;SDS011;3606;52.930;8.644;2022-09-09T03:19:16;13.03;;;10.23;;
7128;SDS011;3606;52.930;8.644;2022-09-09T03:21:43;15.90;;;9.20;;
7128;SDS011;3606;52.930;8.644;2022-09-09T03:24:09;13.67;;;9.10;;
7128;SDS011;3606;52.930;8.644;2022-09-09T03:26:35;12.27;;;9.13;;
7128;SDS011;3606;52.930;8.644;2022-09-09T03:29:02;16.70;;;9.70;;
7128;SDS011;3606;52.930;8.644;2022-09-09T03:31:30;13.93;;;9.30;;
7128;SDS011;3606;52.930;8.644;2022-09-09T03:33:58;11.50;;;9.03;;
7128;SDS011;3606;52.930;8.644;2022-09-09T03:36:24;14.43;;;9.83;;
7128;SDS011;3606;52.930;8.644;2022-09-09T03:38:51;13.07;;;9.33;;
7128;SDS011;3606;52.930;8.644;2022-09-09T03:41:19;13.00;;;8.27;;
7128;SDS011;3606;52.930;8.644;2022-09-09T03:43:47;11.53;;;8.77;;
7128;SDS011;3606;52.930;8.644;2022-09-09T03:46:12;12.93;;;8.30;;
7128;SDS011;3606;52.930;8.644;2022-09-09T03:48:38;14.77;;;9.33;;
7128;SDS011;3606;52.930;8.644;2022-09-09T03:51:03;15.23;;;9.00;;
7128;SDS011;3606;52.930;8.644;2022-09-09T03:53:29;15.40;;;9.03;;
7128;SDS011;3606;52.930;8.644;2022-09-09T03:55:55;12.73;;;9.00;;
7128;SDS011;3606;52.930;8.644;2022-09-09T03:58:25;18.93;;;8.97;;
7128;SDS011;3606;52.930;8.644;2022-09-09T04:00:55;11.03;;;8.30;;
7128;SDS011;3606;52.930;8.644;2022-09-09T04:03:22;13.03;;;8.70;;
7128;SDS011;3606;52.930;8.644;2022-09-09T04:05:49;12.10;;;8.37;;
7128;SDS011;3606;52.930;8.644;2022-09-09T04:08:16;12.77;;;8.10;;
7128;SDS011;3606;52.930;8.644;2022-09-09T04:10:44;11.30;;;8.00;;
7128;SDS011;3606;52.930;8.644;2022-09-09T04:13:11;10.13;;;8.00;;
7128;SDS011;3606;52.930;8.644;2022-09-09T04:15:40;12.93;;;8.00;;
7128;SDS011;3606;52.930;8.644;2022-09-09T04:18:06;16.33;;;7.83;;
7128;SDS011;3606;52.930;8.644;2022-09-09T04:20:31;12.73;;;7.20;;
7128;SDS011;3606;52.930;8.644;2022-09-09T04:22:57;12.37;;;7.93;;
7128;SDS011;3606;52.930;8.644;2022-09-09T04:25:23;15.53;;;8.00;;
7128;SDS011;3606;52.930;8.644;2022-09-09T04:27:53;10.80;;;7.77;;
7128;SDS011;3606;52.930;8.644;2022-09-09T04:30:23;12.40;;;7.73;;
7128;SDS011;3606;52.930;8.644;2022-09-09T04:32:49;9.77;;;6.97;;
7128;SDS011;3606;52.930;8.644;2022-09-09T04:35:15;9.57;;;6.97;;
7128;SDS011;3606;52.930;8.644;2022-09-09T04:37:41;11.37;;;7.47;;
7128;SDS011;3606;52.930;8.644;2022-09-09T04:40:07;9.03;;;6.77;;
7128;SDS011;3606;52.930;8.644;2022-09-09T04:42:35;13.70;;;7.50;;
7128;SDS011;3606;52.930;8.644;2022-09-09T04:45:01;13.23;;;7.30;;
7128;SDS011;3606;52.930;8.644;2022-09-09T04:47:27;13.83;;;6.97;;
7128;SDS011;3606;52.930;8.644;2022-09-09T04:49:52;12.77;;;7.50;;
7128;SDS011;3606;52.930;8.644;2022-09-09T04:52:19;9.13;;;7.20;;
7128;SDS011;3606;52.930;8.644;2022-09-09T04:54:45;11.40;;;7.50;;
7128;SDS011;3606;52.930;8.644;2022-09-09T04:57:11;8.70;;;7.00;;
7128;SDS011;3606;52.930;8.644;2022-09-09T04:59:37;10.67;;;7.53;;
7128;SDS011;3606;52.930;8.644;2022-09-09T05:02:04;11.70;;;7.30;;
7128;SDS011;3606;52.930;8.644;2022-09-09T05:04:30;12.57;;;7.70;;
7128;SDS011;3606;52.930;8.644;2022-09-09T05:06:55;11.57;;;7.37;;
7128;SDS011;3606;52.930;8.644;2022-09-09T05:09:21;11.93;;;8.03;;
7128;SDS011;3606;52.930;8.644;2022-09-09T05:11:47;16.00;;;7.50;;
7128;SDS011;3606;52.930;8.644;2022-09-09T05:14:13;14.00;;;8.43;;
7128;SDS011;3606;52.930;8.644;2022-09-09T05:16:39;12.70;;;7.90;;
7128;SDS011;3606;52.930;8.644;2022-09-09T05:19:05;12.70;;;7.53;;
7128;SDS011;3606;52.930;8.644;2022-09-09T05:21:33;12.30;;;7.50;;
7128;SDS011;3606;52.930;8.644;2022-09-09T05:23:59;13.23;;;7.57;;
7128;SDS011;3606;52.930;8.644;2022-09-09T05:26:25;13.50;;;7.83;;
7128;SDS011;3606;52.930;8.644;2022-09-09T05:28:51;14.13;;;7.57;;
7128;SDS011;3606;52.930;8.644;2022-09-09T05:31:17;10.83;;;7.73;;
7128;SDS011;3606;52.930;8.644;2022-09-09T05:33:44;11.20;;;8.03;;
7128;SDS011;3606;52.930;8.644;2022-09-09T05:36:11;11.20;;;8.00;;
7128;SDS011;3606;52.930;8.644;2022-09-09T05:38:39;11.27;;;8.33;;
7128;SDS011;3606;52.930;8.644;2022-09-09T05:41:06;13.33;;;8.33;;
7128;SDS011;3606;52.930;8.644;2022-09-09T05:43:32;10.00;;;7.40;;
7128;SDS011;3606;52.930;8.644;2022-09-09T05:46:06;13.23;;;8.37;;
7128;SDS011;3606;52.930;8.644;2022-09-09T05:48:34;17.30;;;8.20;;
7128;SDS011;3606;52.930;8.644;2022-09-09T05:51:02;10.70;;;8.17;;
7128;SDS011;3606;52.930;8.644;2022-09-09T05:53:29;11.93;;;7.67;;
7128;SDS011;3606;52.930;8.644;2022-09-09T05:56:03;10.00;;;7.53;;
7128;SDS011;3606;52.930;8.644;2022-09-09T05:58:33;13.37;;;7.70;;
7128;SDS011;3606;52.930;8.644;2022-09-09T06:01:03;13.73;;;8.23;;
7128;SDS011;3606;52.930;8.644;2022-09-09T06:03:31;10.50;;;7.43;;
7128;SDS011;3606;52.930;8.644;2022-09-09T06:06:00;11.77;;;7.53;;
7128;SDS011;3606;52.930;8.644;2022-09-09T06:08:30;13.27;;;7.70;;
7128;SDS011;3606;52.930;8.644;2022-09-09T06:11:00;11.47;;;8.27;;
7128;SDS011;3606;52.930;8.644;2022-09-09T06:13:28;13.27;;;8.13;;
7128;SDS011;3606;52.930;8.644;2022-09-09T06:15:54;10.27;;;7.67;;
7128;SDS011;3606;52.930;8.644;2022-09-09T06:18:20;10.50;;;7.10;;
7128;SDS011;3606;52.930;8.644;2022-09-09T06:20:55;11.43;;;6.40;;
7128;SDS011;3606;52.930;8.644;2022-09-09T06:23:34;8.50;;;6.53;;
7128;SDS011;3606;52.930;8.644;2022-09-09T06:26:16;7.87;;;6.00;;
7128;SDS011;3606;52.930;8.644;2022-09-09T06:28:43;11.60;;;6.67;;
7128;SDS011;3606;52.930;8.644;2022-09-09T06:31:11;8.83;;;6.80;;
7128;SDS011;3606;52.930;8.644;2022-09-09T06:33:40;8.90;;;6.53;;
7128;SDS011;3606;52.930;8.644;2022-09-09T06:36:13;10.30;;;6.90;;
7128;SDS011;3606;52.930;8.644;2022-09-09T06:38:41;10.23;;;6.60;;
7128;SDS011;3606;52.930;8.644;2022-09-09T06:41:07;8.13;;;6.20;;
7128;SDS011;3606;52.930;8.644;2022-09-09T06:43:34;7.70;;;6.90;;
7128;SDS011;3606;52.930;8.644;2022-09-09T06:46:03;7.37;;;6.43;;
7128;SDS011;3606;52.930;8.644;2022-09-09T06:48:33;9.33;;;6.50;;
7128;SDS011;3606;52.930;8.644;2022-09-09T06:53:41;4.90;;;4.07;;
7128;SDS011;3606;52.930;8.644;2022-09-09T06:58:34;9.17;;;4.40;;
7128;SDS011;3606;52.930;8.644;2022-09-09T07:01:10;5.70;;;4.30;;
7128;SDS011;3606;52.930;8.644;2022-09-09T07:03:41;6.97;;;4.30;;
7128;SDS011;3606;52.930;8.644;2022-09-09T07:06:14;5.70;;;4.17;;
7128;SDS011;3606;52.930;8.644;2022-09-09T07:08:42;7.93;;;4.13;;
7128;SDS011;3606;52.930;8.644;2022-09-09T07:11:08;5.43;;;4.20;;
7128;SDS011;3606;52.930;8.644;2022-09-09T07:13:36;5.83;;;3.70;;
7128;SDS011;3606;52.930;8.644;2022-09-09T07:18:30;4.80;;;3.70;;
7128;SDS011;3606;52.930;8.644;2022-09-09T07:20:56;6.03;;;3.70;;
7128;SDS011;3606;52.930;8.644;2022-09-09T07:23:22;8.70;;;3.80;;
7128;SDS011;3606;52.930;8.644;2022-09-09T07:25:48;5.90;;;3.70;;
7128;SDS011;3606;52.930;8.644;2022-09-09T07:28:15;5.80;;;3.53;;
7128;SDS011;3606;52.930;8.644;2022-09-09T07:30:41;5.07;;;3.60;;
7128;SDS011;3606;52.930;8.644;2022-09-09T07:33:07;3.80;;;3.30;;
7128;SDS011;3606;52.930;8.644;2022-09-09T07:35:34;5.13;;;3.20;;
7128;SDS011;3606;52.930;8.644;2022-09-09T07:38:02;6.97;;;3.50;;
7128;SDS011;3606;52.930;8.644;2022-09-09T07:40:32;4.30;;;3.17;;
7128;SDS011;3606;52.930;8.644;2022-09-09T07:42:58;6.47;;;3.60;;
7128;SDS011;3606;52.930;8.644;2022-09-09T07:45:24;5.70;;;3.43;;
7128;SDS011;3606;52.930;8.644;2022-09-09T07:47:52;4.13;;;2.93;;
7128;SDS011;3606;52.930;8.644;2022-09-09T07:50:18;5.80;;;2.77;;
7128;SDS011;3606;52.930;8.644;2022-09-09T07:52:44;3.43;;;2.70;;
7128;SDS011;3606;52.930;8.644;2022-09-09T07:55:09;5.37;;;2.90;;
7128;SDS011;3606;52.930;8.644;2022-09-09T07:57:35;3.73;;;2.60;;
7128;SDS011;3606;52.930;8.644;2022-09-09T08:00:01;4.73;;;2.77;;
7128;SDS011;3606;52.930;8.644;2022-09-09T08:02:29;4.70;;;2.20;;
7128;SDS011;3606;52.930;8.644;2022-09-09T08:04:54;5.80;;;2.77;;
7128;SDS011;3606;52.930;8.644;2022-09-09T08:07:21;3.70;;;2.77;;
7128;SDS011;3606;52.930;8.644;2022-09-09T08:09:47;4.90;;;2.53;;
7128;SDS011;3606;52.930;8.644;2022-09-09T08:12:13;4.07;;;2.70;;
7128;SDS011;3606;52.930;8.644;2022-09-09T08:14:39;4.70;;;2.43;;
7128;SDS011;3606;52.930;8.644;2022-09-09T08:17:05;5.23;;;2.97;;
7128;SDS011;3606;52.930;8.644;2022-09-09T08:19:31;5.53;;;2.90;;
7128;SDS011;3606;52.930;8.644;2022-09-09T08:21:59;3.20;;;2.90;;
7128;SDS011;3606;52.930;8.644;2022-09-09T08:24:26;4.53;;;2.50;;
7128;SDS011;3606;52.930;8.644;2022-09-09T08:26:52;5.97;;;3.00;;
7128;SDS011;3606;52.930;8.644;2022-09-09T08:29:18;5.80;;;3.03;;
7128;SDS011;3606;52.930;8.644;2022-09-09T08:31:48;2.53;;;2.13;;
7128;SDS011;3606;52.930;8.644;2022-09-09T08:34:16;3.50;;;2.53;;
7128;SDS011;3606;52.930;8.644;2022-09-09T08:36:45;3.83;;;2.40;;
7128;SDS011;3606;52.930;8.644;2022-09-09T08:39:13;2.97;;;2.10;;
7128;SDS011;3606;52.930;8.644;2022-09-09T08:52:50;4.77;;;2.80;;
7128;SDS011;3606;52.930;8.644;2022-09-09T08:55:35;3.97;;;2.40;;
7128;SDS011;3606;52.930;8.644;2022-09-09T08:58:09;5.27;;;2.47;;
7128;SDS011;3606;52.930;8.644;2022-09-09T09:09:16;4.87;;;2.30;;
7128;SDS011;3606;52.930;8.644;2022-09-09T09:11:49;4.38;;;2.17;;
7128;SDS011;3606;52.930;8.644;2022-09-09T09:14:18;2.15;;;1.50;;
7128;SDS011;3606;52.930;8.644;2022-09-09T09:16:53;4.55;;;2.03;;
7128;SDS011;3606;52.930;8.644;2022-09-09T09:19:24;6.65;;;2.67;;
7128;SDS011;3606;52.930;8.644;2022-09-09T09:21:59;3.25;;;2.00;;
7128;SDS011;3606;52.930;8.644;2022-09-09T09:24:53;7.75;;;2.17;;
7128;SDS011;3606;52.930;8.644;2022-09-09T09:36:13;4.70;;;2.25;;
7128;SDS011;3606;52.930;8.644;2022-09-09T09:41:52;5.93;;;2.80;;
7128;SDS011;3606;52.930;8.644;2022-09-09T09:44:29;6.97;;;2.07;;
7128;SDS011;3606;52.930;8.644;2022-09-09T09:49:39;4.17;;;2.37;;
7128;SDS011;3606;52.930;8.644;2022-09-09T09:52:15;3.57;;;2.30;;
7128;SDS011;3606;52.930;8.644;2022-09-09T09:54:46;6.63;;;2.67;;
7128;SDS011;3606;52.930;8.644;2022-09-09T09:57:12;3.30;;;2.20;;
7128;SDS011;3606;52.930;8.644;2022-09-09T09:59:42;4.30;;;2.20;;
7128;SDS011;3606;52.930;8.644;2022-09-09T10:02:13;4.20;;;2.40;;
7128;SDS011;3606;52.930;8.644;2022-09-09T10:04:38;2.83;;;2.03;;
7128;SDS011;3606;52.930;8.644;2022-09-09T10:07:18;3.60;;;2.17;;
7128;SDS011;3606;52.930;8.644;2022-09-09T10:09:44;3.37;;;2.20;;
7128;SDS011;3606;52.930;8.644;2022-09-09T10:12:22;5.40;;;2.27;;
7128;SDS011;3606;52.930;8.644;2022-09-09T10:17:54;5.63;;;2.27;;
7128;SDS011;3606;52.930;8.644;2022-09-09T10:26:10;5.27;;;2.47;;
7128;SDS011;3606;52.930;8.644;2022-09-09T10:37:00;5.43;;;2.30;;
7128;SDS011;3606;52.930;8.644;2022-09-09T10:39:36;4.30;;;2.60;;
7128;SDS011;3606;52.930;8.644;2022-09-09T10:42:15;5.60;;;2.20;;
7128;SDS011;3606;52.930;8.644;2022-09-09T10:47:26;6.27;;;2.43;;
7128;SDS011;3606;52.930;8.644;2022-09-09T10:53:46;4.18;;;2.50;;
7128;SDS011;3606;52.930;8.644;2022-09-09T10:56:10;3.85;;;2.45;;
7128;SDS011;3606;52.930;8.644;2022-09-09T10:58:48;4.20;;;2.55;;
7128;SDS011;3606;52.930;8.644;2022-09-09T11:01:20;4.80;;;2.43;;
7128;SDS011;3606;52.930;8.644;2022-09-09T11:03:54;4.73;;;2.27;;
7128;SDS011;3606;52.930;8.644;2022-09-09T11:06:25;4.43;;;2.47;;
7128;SDS011;3606;52.930;8.644;2022-09-09T11:09:00;5.00;;;2.43;;
7128;SDS011;3606;52.930;8.644;2022-09-09T11:14:24;4.30;;;2.73;;
7128;SDS011;3606;52.930;8.644;2022-09-09T11:16:59;4.07;;;2.53;;
7128;SDS011;3606;52.930;8.644;2022-09-09T11:22:08;5.03;;;2.28;;
7128;SDS011;3606;52.930;8.644;2022-09-09T11:24:46;5.72;;;2.47;;
7128;SDS011;3606;52.930;8.644;2022-09-09T11:27:19;6.25;;;2.38;;
7128;SDS011;3606;52.930;8.644;2022-09-09T11:38:50;4.05;;;2.30;;
7128;SDS011;3606;52.930;8.644;2022-09-09T11:41:17;4.30;;;2.30;;
7128;SDS011;3606;52.930;8.644;2022-09-09T11:43:52;3.80;;;2.40;;
7128;SDS011;3606;52.930;8.644;2022-09-09T11:46:22;4.75;;;2.42;;
7128;SDS011;3606;52.930;8.644;2022-09-09T11:49:01;5.22;;;2.25;;
7128;SDS011;3606;52.930;8.644;2022-09-09T11:51:29;3.95;;;2.38;;
7128;SDS011;3606;52.930;8.644;2022-09-09T11:54:01;4.15;;;2.00;;
7128;SDS011;3606;52.930;8.644;2022-09-09T11:56:47;5.67;;;2.47;;
7128;SDS011;3606;52.930;8.644;2022-09-09T11:59:20;5.70;;;2.17;;
7128;SDS011;3606;52.930;8.644;2022-09-09T12:01:55;3.97;;;2.40;;
7128;SDS011;3606;52.930;8.644;2022-09-09T12:06:54;5.10;;;2.40;;
7128;SDS011;3606;52.930;8.644;2022-09-09T12:12:22;9.80;;;2.90;;
7128;SDS011;3606;52.930;8.644;2022-09-09T12:14:59;3.67;;;2.63;;
7128;SDS011;3606;52.930;8.644;2022-09-09T12:20:18;3.50;;;2.50;;
7128;SDS011;3606;52.930;8.644;2022-09-09T12:26:03;9.13;;;2.47;;
7128;SDS011;3606;52.930;8.644;2022-09-09T12:34:04;4.80;;;2.30;;
7128;SDS011;3606;52.930;8.644;2022-09-09T12:36:35;4.28;;;2.15;;
7128;SDS011;3606;52.930;8.644;2022-09-09T12:39:09;5.18;;;2.50;;
7128;SDS011;3606;52.930;8.644;2022-09-09T12:41:41;3.67;;;2.17;;
7128;SDS011;3606;52.930;8.644;2022-09-09T12:44:22;5.88;;;2.60;;
7128;SDS011;3606;52.930;8.644;2022-09-09T12:46:49;5.88;;;2.30;;
7128;SDS011;3606;52.930;8.644;2022-09-09T12:49:26;3.35;;;2.17;;
7128;SDS011;3606;52.930;8.644;2022-09-09T12:52:03;6.00;;;2.38;;
7128;SDS011;3606;52.930;8.644;2022-09-09T12:54:43;7.13;;;2.50;;
7128;SDS011;3606;52.930;8.644;2022-09-09T12:57:15;7.90;;;2.80;;
7128;SDS011;3606;52.930;8.644;2022-09-09T12:59:42;7.70;;;2.80;;
7128;SDS011;3606;52.930;8.644;2022-09-09T13:02:23;6.63;;;3.10;;
7128;SDS011;3606;52.930;8.644;2022-09-09T13:04:51;5.80;;;2.70;;
7128;SDS011;3606;52.930;8.644;2022-09-09T13:07:19;6.17;;;2.50;;
7128;SDS011;3606;52.930;8.644;2022-09-09T13:09:48;3.83;;;2.60;;
7128;SDS011;3606;52.930;8.644;2022-09-09T13:12:21;6.83;;;2.80;;
7128;SDS011;3606;52.930;8.644;2022-09-09T13:14:48;7.10;;;2.70;;
7128;SDS011;3606;52.930;8.644;2022-09-09T13:17:26;6.50;;;2.53;;
7128;SDS011;3606;52.930;8.644;2022-09-09T13:19:55;5.63;;;2.70;;
7128;SDS011;3606;52.930;8.644;2022-09-09T13:27:40;4.50;;;2.63;;
7128;SDS011;3606;52.930;8.644;2022-09-09T13:32:47;6.17;;;2.83;;
7128;SDS011;3606;52.930;8.644;2022-09-09T13:35:30;7.47;;;3.00;;
7128;SDS011;3606;52.930;8.644;2022-09-09T13:37:56;55.20;;;8.20;;
7128;SDS011;3606;52.930;8.644;2022-09-09T13:40:23;11.13;;;3.50;;
7128;SDS011;3606;52.930;8.644;2022-09-09T13:42:55;8.03;;;3.73;;
7128;SDS011;3606;52.930;8.644;2022-09-09T13:45:22;8.27;;;3.40;;
7128;SDS011;3606;52.930;8.644;2022-09-09T13:47:51;5.20;;;3.17;;
7128;SDS011;3606;52.930;8.644;2022-09-09T13:52:46;6.77;;;3.77;;
7128;SDS011;3606;52.930;8.644;2022-09-09T13:55:12;5.67;;;3.43;;
7128;SDS011;3606;52.930;8.644;2022-09-09T13:57:38;3.70;;;3.27;;
7128;SDS011;3606;52.930;8.644;2022-09-09T14:00:04;9.17;;;3.40;;
7128;SDS011;3606;52.930;8.644;2022-09-09T14:02:32;6.13;;;3.70;;
7128;SDS011;3606;52.930;8.644;2022-09-09T14:04:58;8.87;;;4.73;;
7128;SDS011;3606;52.930;8.644;2022-09-09T14:07:24;7.73;;;3.93;;
7128;SDS011;3606;52.930;8.644;2022-09-09T14:09:50;7.43;;;3.90;;
7128;SDS011;3606;52.930;8.644;2022-09-09T14:12:16;6.83;;;3.70;;
7128;SDS011;3606;52.930;8.644;2022-09-09T14:14:43;6.63;;;4.43;;
7128;SDS011;3606;52.930;8.644;2022-09-09T14:17:09;9.33;;;4.27;;
7128;SDS011;3606;52.930;8.644;2022-09-09T14:19:34;8.90;;;5.33;;
7128;SDS011;3606;52.930;8.644;2022-09-09T14:22:01;5.27;;;4.77;;
7128;SDS011;3606;52.930;8.644;2022-09-09T14:24:27;8.70;;;5.77;;
7128;SDS011;3606;52.930;8.644;2022-09-09T14:26:53;7.47;;;5.53;;
7128;SDS011;3606;52.930;8.644;2022-09-09T14:29:19;6.80;;;5.40;;
7128;SDS011;3606;52.930;8.644;2022-09-09T14:31:44;9.70;;;5.87;;
7128;SDS011;3606;52.930;8.644;2022-09-09T14:34:10;9.70;;;6.20;;
7128;SDS011;3606;52.930;8.644;2022-09-09T14:36:39;9.67;;;6.60;;
7128;SDS011;3606;52.930;8.644;2022-09-09T14:39:06;11.30;;;6.67;;
7128;SDS011;3606;52.930;8.644;2022-09-09T14:41:32;9.47;;;7.30;;
7128;SDS011;3606;52.930;8.644;2022-09-09T14:43:57;7.80;;;6.73;;
7128;SDS011;3606;52.930;8.644;2022-09-09T14:46:24;11.90;;;7.20;;
7128;SDS011;3606;52.930;8.644;2022-09-09T14:48:51;12.07;;;7.40;;
7128;SDS011;3606;52.930;8.644;2022-09-09T14:51:21;10.13;;;7.07;;
7128;SDS011;3606;52.930;8.644;2022-09-09T14:53:50;10.90;;;6.67;;
7128;SDS011;3606;52.930;8.644;2022-09-09T14:56:18;11.03;;;7.33;;
7128;SDS011;3606;52.930;8.644;2022-09-09T14:58:46;11.67;;;6.67;;
7128;SDS011;3606;52.930;8.644;2022-09-09T15:01:13;11.43;;;7.30;;
7128;SDS011;3606;52.930;8.644;2022-09-09T15:03:41;11.33;;;7.13;;
7128;SDS011;3606;52.930;8.644;2022-09-09T15:06:09;10.20;;;7.13;;
7128;SDS011;3606;52.930;8.644;2022-09-09T15:08:37;9.90;;;7.40;;
7128;SDS011;3606;52.930;8.644;2022-09-09T15:11:05;10.13;;;7.00;;
7128;SDS011;3606;52.930;8.644;2022-09-09T15:13:34;12.33;;;7.77;;
7128;SDS011;3606;52.930;8.644;2022-09-09T15:18:32;10.03;;;7.03;;
7128;SDS011;3606;52.930;8.644;2022-09-09T15:21:01;12.50;;;6.57;;
7128;SDS011;3606;52.930;8.644;2022-09-09T15:23:30;10.63;;;7.00;;
7128;SDS011;3606;52.930;8.644;2022-09-09T15:26:00;8.03;;;6.60;;
7128;SDS011;3606;52.930;8.644;2022-09-09T15:28:26;6.57;;;5.93;;
7128;SDS011;3606;52.930;8.644;2022-09-09T15:30:52;10.97;;;6.00;;
7128;SDS011;3606;52.930;8.644;2022-09-09T15:33:19;6.80;;;5.30;;
7128;SDS011;3606;52.930;8.644;2022-09-09T15:35:45;12.43;;;6.07;;
7128;SDS011;3606;52.930;8.644;2022-09-09T15:38:11;6.97;;;4.90;;
7128;SDS011;3606;52.930;8.644;2022-09-09T15:40:41;5.73;;;4.77;;
7128;SDS011;3606;52.930;8.644;2022-09-09T15:43:07;7.57;;;5.13;;
7128;SDS011;3606;52.930;8.644;2022-09-09T15:45:35;7.07;;;4.80;;
7128;SDS011;3606;52.930;8.644;2022-09-09T15:48:02;8.00;;;5.20;;
7128;SDS011;3606;52.930;8.644;2022-09-09T15:50:28;9.00;;;4.97;;
7128;SDS011;3606;52.930;8.644;2022-09-09T15:52:57;5.93;;;4.30;;
7128;SDS011;3606;52.930;8.644;2022-09-09T15:55:24;9.13;;;4.27;;
7128;SDS011;3606;52.930;8.644;2022-09-09T15:57:50;6.47;;;4.37;;
7128;SDS011;3606;52.930;8.644;2022-09-09T16:00:17;8.53;;;4.10;;
7128;SDS011;3606;52.930;8.644;2022-09-09T16:02:44;7.97;;;4.33;;
7128;SDS011;3606;52.930;8.644;2022-09-09T16:05:11;6.43;;;4.70;;
7128;SDS011;3606;52.930;8.644;2022-09-09T16:07:37;7.97;;;5.57;;
7128;SDS011;3606;52.930;8.644;2022-09-09T16:10:03;6.77;;;4.73;;
7128;SDS011;3606;52.930;8.644;2022-09-09T16:12:28;4.10;;;3.70;;
7128;SDS011;3606;52.930;8.644;2022-09-09T16:14:54;5.37;;;3.40;;
7128;SDS011;3606;52.930;8.644;2022-09-09T16:17:20;29.37;;;22.23;;
7128;SDS011;3606;52.930;8.644;2022-09-09T16:19:46;7.43;;;5.87;;
7128;SDS011;3606;52.930;8.644;2022-09-09T16:22:12;6.00;;;4.10;;
7128;SDS011;3606;52.930;8.644;2022-09-09T16:24:40;5.30;;;4.20;;
7128;SDS011;3606;52.930;8.644;2022-09-09T16:27:05;7.10;;;4.40;;
7128;SDS011;3606;52.930;8.644;2022-09-09T16:29:31;7.23;;;3.53;;
7128;SDS011;3606;52.930;8.644;2022-09-09T16:31:57;6.03;;;4.20;;
7128;SDS011;3606;52.930;8.644;2022-09-09T16:34:23;8.57;;;6.00;;
7128;SDS011;3606;52.930;8.644;2022-09-09T16:36:50;7.90;;;4.53;;
7128;SDS011;3606;52.930;8.644;2022-09-09T16:39:17;4.10;;;3.57;;
7128;SDS011;3606;52.930;8.644;2022-09-09T16:41:44;5.93;;;3.83;;
7128;SDS011;3606;52.930;8.644;2022-09-09T16:44:12;10.07;;;4.47;;
7128;SDS011;3606;52.930;8.644;2022-09-09T16:46:41;4.90;;;4.43;;
7128;SDS011;3606;52.930;8.644;2022-09-09T16:49:08;6.93;;;4.23;;
7128;SDS011;3606;52.930;8.644;2022-09-09T16:51:37;5.20;;;4.47;;
7128;SDS011;3606;52.930;8.644;2022-09-09T16:54:11;7.47;;;5.47;;
7128;SDS011;3606;52.930;8.644;2022-09-09T16:56:39;14.43;;;8.30;;
7128;SDS011;3606;52.930;8.644;2022-09-09T16:59:07;7.40;;;5.30;;
7128;SDS011;3606;52.930;8.644;2022-09-09T17:01:38;9.23;;;5.60;;
7128;SDS011;3606;52.930;8.644;2022-09-09T17:04:07;11.00;;;6.77;;
7128;SDS011;3606;52.930;8.644;2022-09-09T17:06:38;8.93;;;6.70;;
7128;SDS011;3606;52.930;8.644;2022-09-09T17:09:07;9.17;;;7.00;;
7128;SDS011;3606;52.930;8.644;2022-09-09T17:11:35;7.13;;;6.43;;
7128;SDS011;3606;52.930;8.644;2022-09-09T17:14:02;7.63;;;6.03;;
7128;SDS011;3606;52.930;8.644;2022-09-09T17:16:30;6.47;;;5.13;;
7128;SDS011;3606;52.930;8.644;2022-09-09T17:18:57;8.90;;;5.40;;
7128;SDS011;3606;52.930;8.644;2022-09-09T17:21:24;7.97;;;5.70;;
7128;SDS011;3606;52.930;8.644;2022-09-09T17:23:51;10.67;;;5.90;;
7128;SDS011;3606;52.930;8.644;2022-09-09T17:26:20;7.27;;;5.30;;
7128;SDS011;3606;52.930;8.644;2022-09-09T17:28:47;7.60;;;5.53;;
7128;SDS011;3606;52.930;8.644;2022-09-09T17:31:15;6.90;;;5.43;;
7128;SDS011;3606;52.930;8.644;2022-09-09T17:33:43;5.80;;;4.63;;
7128;SDS011;3606;52.930;8.644;2022-09-09T17:36:18;10.57;;;5.43;;
7128;SDS011;3606;52.930;8.644;2022-09-09T17:38:47;6.03;;;4.50;;
7128;SDS011;3606;52.930;8.644;2022-09-09T17:41:17;8.00;;;5.07;;
7128;SDS011;3606;52.930;8.644;2022-09-09T17:43:43;8.10;;;5.13;;
7128;SDS011;3606;52.930;8.644;2022-09-09T17:48:37;8.97;;;5.80;;
7128;SDS011;3606;52.930;8.644;2022-09-09T17:51:05;6.03;;;5.37;;